createdAt,value
2024-05-09T00:00:44.234Z,3.5
2024-05-09T00:01:58.636Z,3.8
2024-05-09T00:03:12.977Z,3.3
2024-05-09T00:04:27.248Z,3.5
2024-05-09T00:05:41.527Z,3.3
2024-05-09T00:06:55.985Z,4
2024-05-09T00:08:10.332Z,4.1
2024-05-09T00:09:23.709Z,3.6
2024-05-09T00:10:37.059Z,4.8
2024-05-09T00:11:51.395Z,3.6
2024-05-09T00:13:05.664Z,3.3
2024-05-09T00:14:19.954Z,3.4
2024-05-09T00:15:34.368Z,3.7
2024-05-09T00:16:48.688Z,3.5
2024-05-09T00:18:03.089Z,3.9
2024-05-09T00:19:17.425Z,3.8
2024-05-09T00:20:31.694Z,3.9
2024-05-09T00:21:46.103Z,3.8
2024-05-09T00:23:00.423Z,3.2
2024-05-09T00:24:14.702Z,3
2024-05-09T00:25:29.000Z,3.7
2024-05-09T00:26:43.402Z,3.6
2024-05-09T00:27:57.726Z,4.1
2024-05-09T00:29:11.998Z,4
2024-05-09T00:30:26.279Z,3.5
2024-05-09T00:31:40.696Z,4
2024-05-09T00:32:55.014Z,3.7
2024-05-09T00:34:09.300Z,3
2024-05-09T00:35:23.571Z,3.2
2024-05-09T00:36:37.990Z,3.2
2024-05-09T00:37:52.313Z,3.6
2024-05-09T00:39:06.598Z,3.5
2024-05-09T00:40:20.865Z,3.7
2024-05-09T00:41:35.277Z,3.4
2024-05-09T00:42:49.607Z,3.5
2024-05-09T00:44:03.880Z,3.5
2024-05-09T00:45:18.159Z,2.8
2024-05-09T00:46:32.581Z,3.7
2024-05-09T00:47:46.888Z,3.9
2024-05-09T00:49:01.188Z,3.8
2024-05-09T00:50:15.457Z,4.3
2024-05-09T00:51:29.876Z,4
2024-05-09T00:52:44.191Z,3.6
2024-05-09T00:53:58.467Z,3.7
2024-05-09T00:55:12.752Z,3.3
2024-05-09T00:57:41.492Z,3.4
2024-05-09T00:58:55.764Z,4.2
2024-05-09T01:00:10.049Z,3
2024-05-09T01:01:24.463Z,3
2024-05-09T01:02:38.786Z,3.6
2024-05-09T01:03:53.122Z,4.2
2024-05-09T01:05:06.505Z,3.4
2024-05-09T01:06:20.842Z,3.1
2024-05-09T01:07:34.188Z,3.5
2024-05-09T01:08:48.480Z,3.9
2024-05-09T01:10:02.884Z,3.3
2024-05-09T01:11:17.208Z,3.1
2024-05-09T01:12:31.486Z,3.3
2024-05-09T01:13:45.761Z,2.6
2024-05-09T01:15:00.184Z,3.4
2024-05-09T01:16:14.510Z,3.7
2024-05-09T01:17:28.780Z,3.5
2024-05-09T01:18:43.180Z,3.6
2024-05-09T01:19:57.592Z,3.4
2024-05-09T01:21:11.917Z,3.6
2024-05-09T01:22:26.195Z,3.3
2024-05-09T01:23:40.474Z,4
2024-05-09T01:24:54.882Z,3.8
2024-05-09T01:26:09.174Z,3.5
2024-05-09T01:27:23.455Z,3.4
2024-05-09T01:28:37.735Z,3.5
2024-05-09T01:29:52.146Z,3.5
2024-05-09T01:31:06.475Z,3.6
2024-05-09T01:32:20.767Z,2.9
2024-05-09T01:33:35.037Z,3.4
2024-05-09T01:34:49.446Z,2.9
2024-05-09T01:36:03.763Z,3.4
2024-05-09T01:37:18.049Z,4
2024-05-09T01:38:32.323Z,3.8
2024-05-09T01:39:46.733Z,3.5
2024-05-09T01:42:15.351Z,3.5
2024-05-09T01:43:29.634Z,3.7
2024-05-09T01:44:44.034Z,3.8
2024-05-09T01:45:58.352Z,3.7
2024-05-09T01:47:12.634Z,3.4
2024-05-09T01:48:26.925Z,3.3
2024-05-09T01:49:41.320Z,4.1
2024-05-09T01:50:55.644Z,3.2
2024-05-09T01:52:09.928Z,4.2
2024-05-09T01:53:24.216Z,3.5
2024-05-09T01:54:38.614Z,3.1
2024-05-09T01:55:52.945Z,3.3
2024-05-09T01:57:07.222Z,3.2
2024-05-09T01:58:21.499Z,3.2
2024-05-09T01:59:35.925Z,3.4
2024-05-09T02:00:50.240Z,3.6
2024-05-09T02:02:04.514Z,3.4
2024-05-09T02:03:18.797Z,3.7
2024-05-09T02:04:33.261Z,4
2024-05-09T02:05:47.612Z,3.5
2024-05-09T02:07:01.035Z,3.1
2024-05-09T02:08:14.371Z,3.6
2024-05-09T02:09:28.699Z,3.7
2024-05-09T02:10:42.983Z,3.8
2024-05-09T02:11:57.269Z,3.7
2024-05-09T02:13:11.663Z,3.6
2024-05-09T02:14:25.988Z,4
2024-05-09T02:15:40.275Z,3.4
2024-05-09T02:16:54.559Z,4
2024-05-09T02:18:08.972Z,3.2
2024-05-09T02:19:23.279Z,3.2
2024-05-09T02:20:37.561Z,3.3
2024-05-09T02:21:51.851Z,3.2
2024-05-09T02:23:06.264Z,3.4
2024-05-09T02:24:20.584Z,3.3
2024-05-09T02:25:34.873Z,3.6
2024-05-09T02:26:49.146Z,3.5
2024-05-09T02:28:03.561Z,3.7
2024-05-09T02:29:17.868Z,2.7
2024-05-09T02:30:32.158Z,3.2
2024-05-09T02:31:46.445Z,3.6
2024-05-09T02:33:00.837Z,2.9
2024-05-09T02:34:15.180Z,2.6
2024-05-09T02:35:29.454Z,3.6
2024-05-09T02:36:43.729Z,2.7
2024-05-09T02:37:58.138Z,3.3
2024-05-09T02:39:12.528Z,2.9
2024-05-09T02:40:25.914Z,3.2
2024-05-09T02:41:40.254Z,3
2024-05-09T02:42:54.663Z,3.5
2024-05-09T02:44:08.992Z,3.3
2024-05-09T02:45:22.344Z,3.3
2024-05-09T02:46:36.622Z,3
2024-05-09T02:47:51.029Z,3.2
2024-05-09T02:49:05.364Z,3.2
2024-05-09T02:50:19.637Z,2.6
2024-05-09T02:51:33.924Z,3.7
2024-05-09T02:52:48.319Z,3.5
2024-05-09T02:54:02.644Z,2.9
2024-05-09T02:55:16.919Z,2.9
2024-05-09T02:56:31.201Z,2.8
2024-05-09T02:57:45.613Z,4
2024-05-09T02:58:59.937Z,2.7
2024-05-09T03:00:14.226Z,3.7
2024-05-09T03:01:28.508Z,2.8
2024-05-09T03:02:42.907Z,3.7
2024-05-09T03:03:57.226Z,3.1
2024-05-09T03:05:11.465Z,3.5
2024-05-09T03:06:25.681Z,3
2024-05-09T03:07:39.918Z,3.2
2024-05-09T03:08:54.220Z,3.5
2024-05-09T03:10:08.504Z,4.3
2024-05-09T03:11:22.788Z,3.3
2024-05-09T03:12:37.015Z,3.3
2024-05-09T03:13:51.322Z,3.8
2024-05-09T03:15:05.548Z,3.8
2024-05-09T03:16:19.831Z,2.8
2024-05-09T03:17:33.182Z,3.7
2024-05-09T03:18:47.464Z,3.7
2024-05-09T03:20:01.761Z,3
2024-05-09T03:21:16.035Z,2.6
2024-05-09T03:22:29.400Z,3.5
2024-05-09T03:23:43.683Z,3.4
2024-05-09T03:24:57.973Z,3.7
2024-05-09T03:26:11.257Z,3.3
2024-05-09T03:27:25.494Z,3.7
2024-05-09T03:28:39.795Z,4.2
2024-05-09T03:29:54.030Z,3.5
2024-05-09T03:31:08.262Z,3
2024-05-09T03:32:22.493Z,3
2024-05-09T03:33:36.708Z,3.2
2024-05-09T03:34:51.021Z,3.3
2024-05-09T03:36:05.245Z,3.1
2024-05-09T03:37:19.478Z,3.9
2024-05-09T03:38:33.715Z,3.4
2024-05-09T03:39:47.933Z,3.5
2024-05-09T03:41:02.228Z,3.9
2024-05-09T03:42:16.483Z,4
2024-05-09T03:43:30.705Z,3.8
2024-05-09T03:44:44.926Z,4.3
2024-05-09T03:45:59.156Z,3.4
2024-05-09T03:47:13.448Z,3.9
2024-05-09T03:48:27.693Z,3.2
2024-05-09T03:49:41.921Z,3.1
2024-05-09T03:50:56.159Z,3.3
2024-05-09T03:52:10.385Z,2.7
2024-05-09T03:53:24.677Z,3.1
2024-05-09T03:54:38.921Z,3
2024-05-09T03:55:53.136Z,3.2
2024-05-09T03:57:07.436Z,3.7
2024-05-09T03:58:21.707Z,2.9
2024-05-09T03:59:36.009Z,3
2024-05-09T04:00:50.293Z,3
2024-05-09T04:02:03.590Z,3.9
2024-05-09T04:03:17.826Z,3.4
2024-05-09T04:04:32.123Z,3.4
2024-05-09T04:05:46.353Z,3.8
2024-05-09T04:07:00.709Z,3.7
2024-05-09T04:08:14.934Z,3.5
2024-05-09T04:09:29.171Z,3.5
2024-05-09T04:10:43.469Z,3.2
2024-05-09T04:11:57.699Z,3.1
2024-05-09T04:13:11.927Z,3.7
2024-05-09T04:14:26.146Z,3.8
2024-05-09T04:15:40.383Z,4.1
2024-05-09T04:16:54.680Z,3.5
2024-05-09T04:18:08.919Z,3.7
2024-05-09T04:19:23.154Z,3.5
2024-05-09T04:20:37.369Z,3.1
2024-05-09T04:21:51.608Z,2.9
2024-05-09T04:23:05.908Z,3.3
2024-05-09T04:24:20.145Z,4
2024-05-09T04:25:34.381Z,3.6
2024-05-09T04:26:48.591Z,3.2
2024-05-09T04:28:02.833Z,3.9
2024-05-09T04:29:17.116Z,3.4
2024-05-09T04:30:31.357Z,4.6
2024-05-09T04:31:45.601Z,3.3
2024-05-09T04:32:59.826Z,3.8
2024-05-09T04:34:14.046Z,3.4
2024-05-09T04:35:28.343Z,3.9
2024-05-09T04:36:42.580Z,4.1
2024-05-09T04:37:56.804Z,3.5
2024-05-09T04:39:11.036Z,3.4
2024-05-09T04:40:25.271Z,3.6
2024-05-09T04:41:39.569Z,3.5
2024-05-09T04:42:53.803Z,4
2024-05-09T04:44:08.046Z,4.5
2024-05-09T04:45:22.254Z,3.7
2024-05-09T04:46:36.641Z,4.4
2024-05-09T04:47:50.922Z,4.4
2024-05-09T04:49:05.169Z,4.5
2024-05-09T04:50:19.393Z,5.4
2024-05-09T04:51:33.628Z,4.8
2024-05-09T04:52:47.862Z,4.3
2024-05-09T04:54:02.145Z,4.1
2024-05-09T04:55:16.402Z,4
2024-05-09T04:56:30.620Z,4.6
2024-05-09T04:57:44.856Z,4.5
2024-05-09T04:58:59.073Z,4.5
2024-05-09T05:00:13.373Z,4.5
2024-05-09T05:01:27.606Z,4.4
2024-05-09T05:02:41.846Z,4.7
2024-05-09T05:03:56.062Z,5.2
2024-05-09T05:05:10.286Z,4.4
2024-05-09T05:06:24.597Z,4.8
2024-05-09T05:07:38.832Z,5.3
2024-05-09T05:08:53.072Z,4.4
2024-05-09T05:10:07.283Z,4.8
2024-05-09T05:11:21.518Z,5.6
2024-05-09T05:12:35.826Z,5.3
2024-05-09T05:13:50.065Z,4.9
2024-05-09T05:15:04.291Z,4.5
2024-05-09T05:16:18.520Z,5.2
2024-05-09T05:17:32.803Z,4.7
2024-05-09T05:18:47.105Z,4.8
2024-05-09T05:20:01.384Z,4.5
2024-05-09T05:21:14.664Z,4.2
2024-05-09T05:22:28.902Z,5.2
2024-05-09T05:23:43.206Z,5.5
2024-05-09T05:24:57.437Z,5
2024-05-09T05:26:11.674Z,6
2024-05-09T05:27:25.891Z,5.3
2024-05-09T05:28:40.130Z,4.5
2024-05-09T05:29:54.427Z,4.9
2024-05-09T05:31:08.655Z,4.2
2024-05-09T05:32:22.888Z,5.2
2024-05-09T05:33:37.242Z,5
2024-05-09T05:34:51.460Z,4.2
2024-05-09T05:36:05.758Z,4.4
2024-05-09T05:37:20.000Z,4.1
2024-05-09T05:38:34.235Z,4.4
2024-05-09T05:39:48.464Z,5.8
2024-05-09T05:41:02.689Z,4.8
2024-05-09T05:42:16.995Z,4.8
2024-05-09T05:43:31.226Z,5.3
2024-05-09T05:44:45.460Z,4.8
2024-05-09T05:45:59.678Z,5.2
2024-05-09T05:47:13.903Z,4.5
2024-05-09T05:48:28.203Z,4.9
2024-05-09T05:49:42.450Z,4.3
2024-05-09T05:50:56.683Z,4.2
2024-05-09T05:52:10.909Z,4.4
2024-05-09T05:53:25.125Z,5.9
2024-05-09T05:54:39.422Z,4.2
2024-05-09T05:55:53.675Z,5
2024-05-09T05:57:07.891Z,4.8
2024-05-09T05:58:22.133Z,4.8
2024-05-09T05:59:36.358Z,4.8
2024-05-09T06:00:50.656Z,5.1
2024-05-09T06:02:04.902Z,5.1
2024-05-09T06:03:19.115Z,4.6
2024-05-09T06:04:33.348Z,5.4
2024-05-09T06:05:47.570Z,4.2
2024-05-09T06:07:01.876Z,4.9
2024-05-09T06:08:16.121Z,4.8
2024-05-09T06:09:30.342Z,4.8
2024-05-09T06:10:44.571Z,4.7
2024-05-09T06:11:58.787Z,5.4
2024-05-09T06:13:13.090Z,4.4
2024-05-09T06:14:27.331Z,4.5
2024-05-09T06:15:41.565Z,4.2
2024-05-09T06:16:55.797Z,4.8
2024-05-09T06:18:10.005Z,4.4
2024-05-09T06:19:24.382Z,4.2
2024-05-09T06:20:38.649Z,4.5
2024-05-09T06:21:52.003Z,3.9
2024-05-09T06:23:05.298Z,4.6
2024-05-09T06:24:19.537Z,4.2
2024-05-09T06:25:33.771Z,3.6
2024-05-09T06:26:47.998Z,4.5
2024-05-09T06:28:02.221Z,4.4
2024-05-09T06:29:16.507Z,4.8
2024-05-09T06:30:30.763Z,4
2024-05-09T06:31:44.994Z,3.9
2024-05-09T06:32:59.216Z,4.4
2024-05-09T06:34:13.435Z,3.5
2024-05-09T06:35:27.735Z,4.5
2024-05-09T06:36:41.984Z,4.2
2024-05-09T06:37:56.211Z,3.7
2024-05-09T06:39:10.439Z,4.1
2024-05-09T06:40:24.656Z,4.1
2024-05-09T06:41:38.951Z,4
2024-05-09T06:42:53.193Z,4.4
2024-05-09T06:44:07.424Z,3.6
2024-05-09T06:45:21.652Z,3.8
2024-05-09T06:46:35.879Z,3.8
2024-05-09T06:47:50.184Z,3.8
2024-05-09T06:49:04.418Z,4.5
2024-05-09T06:50:18.638Z,3.5
2024-05-09T06:51:32.875Z,4.5
2024-05-09T06:52:47.094Z,3.9
2024-05-09T06:54:01.452Z,3.3
2024-05-09T06:55:15.746Z,3.2
2024-05-09T06:56:29.035Z,4.2
2024-05-09T06:57:43.264Z,3.6
2024-05-09T06:58:57.560Z,3.5
2024-05-09T07:00:11.809Z,4.1
2024-05-09T07:01:26.021Z,3.9
2024-05-09T07:02:40.262Z,3.7
2024-05-09T07:03:54.476Z,3.6
2024-05-09T07:05:08.782Z,3.4
2024-05-09T07:06:23.031Z,3.8
2024-05-09T07:07:37.252Z,3.8
2024-05-09T07:08:51.482Z,3.8
2024-05-09T07:10:05.698Z,3.2
2024-05-09T07:11:20.003Z,3.8
2024-05-09T07:12:34.254Z,3.6
2024-05-09T07:13:48.466Z,3.4
2024-05-09T07:15:02.691Z,4
2024-05-09T07:16:16.915Z,3.7
2024-05-09T07:17:31.223Z,4.2
2024-05-09T07:18:45.461Z,3.1
2024-05-09T07:19:59.684Z,3.3
2024-05-09T07:21:13.921Z,3.5
2024-05-09T07:22:28.142Z,3.1
2024-05-09T07:23:42.435Z,3.2
2024-05-09T07:24:56.690Z,3.3
2024-05-09T07:26:10.904Z,3.8
2024-05-09T07:27:25.202Z,3.2
2024-05-09T07:28:38.534Z,3.2
2024-05-09T07:29:52.802Z,3.3
2024-05-09T07:31:06.104Z,3.7
2024-05-09T07:32:20.342Z,4
2024-05-09T07:33:34.640Z,3.4
2024-05-09T07:34:48.867Z,3.3
2024-05-09T07:36:03.096Z,3.6
2024-05-09T07:37:17.327Z,3.3
2024-05-09T07:38:31.546Z,3.5
2024-05-09T07:39:45.862Z,3.6
2024-05-09T07:41:00.103Z,3.2
2024-05-09T07:42:14.324Z,3.4
2024-05-09T07:43:28.541Z,3.3
2024-05-09T07:44:42.783Z,3.8
2024-05-09T07:45:57.073Z,3.3
2024-05-09T07:47:11.321Z,3.8
2024-05-09T07:48:25.533Z,3.7
2024-05-09T07:49:39.769Z,3.8
2024-05-09T07:50:53.988Z,3.4
2024-05-09T07:52:08.295Z,4.4
2024-05-09T07:53:22.545Z,3.7
2024-05-09T07:54:36.760Z,3.8
2024-05-09T07:55:50.997Z,3.5
2024-05-09T07:57:05.212Z,3.2
2024-05-09T07:58:19.518Z,4.2
2024-05-09T07:59:33.767Z,3.5
2024-05-09T08:00:47.984Z,4
2024-05-09T08:02:02.263Z,3.3
2024-05-09T08:03:15.606Z,4.2
2024-05-09T08:04:29.888Z,3.8
2024-05-09T08:05:43.245Z,3.6
2024-05-09T08:06:56.560Z,3.6
2024-05-09T08:08:10.844Z,3.3
2024-05-09T08:09:24.138Z,3.1
2024-05-09T08:10:38.373Z,3.1
2024-05-09T08:11:52.677Z,3.4
2024-05-09T08:13:06.908Z,2.7
2024-05-09T08:14:21.151Z,3
2024-05-09T08:15:35.361Z,3.1
2024-05-09T08:16:49.588Z,2.9
2024-05-09T08:18:03.903Z,3.4
2024-05-09T08:19:18.133Z,2.8
2024-05-09T08:20:32.356Z,3.2
2024-05-09T08:21:46.585Z,3.2
2024-05-09T08:23:00.814Z,3
2024-05-09T08:24:15.106Z,2.6
2024-05-09T08:25:29.362Z,2.7
2024-05-09T08:26:43.572Z,2.7
2024-05-09T08:27:57.815Z,2.4
2024-05-09T08:29:12.037Z,2.7
2024-05-09T08:30:26.335Z,2.5
2024-05-09T08:31:40.572Z,2.4
2024-05-09T08:32:54.797Z,2.6
2024-05-09T08:34:09.029Z,2.5
2024-05-09T08:36:37.562Z,2.7
2024-05-09T08:37:51.796Z,2.8
2024-05-09T08:39:06.021Z,2.8
2024-05-09T08:40:20.314Z,3.1
2024-05-09T08:41:33.649Z,2.7
2024-05-09T08:42:47.933Z,3.6
2024-05-09T08:44:02.216Z,2.6
2024-05-09T08:45:16.487Z,2.7
2024-05-09T08:46:29.791Z,3.1
2024-05-09T08:47:44.031Z,2.8
2024-05-09T08:48:58.252Z,3.2
2024-05-09T08:50:12.477Z,2.8
2024-05-09T08:51:26.706Z,2.6
2024-05-09T08:52:41.005Z,3.1
2024-05-09T08:53:55.245Z,2.9
2024-05-09T08:55:09.481Z,2.9
2024-05-09T08:56:23.707Z,3.4
2024-05-09T08:57:37.934Z,2.5
2024-05-09T09:00:06.477Z,2.9
2024-05-09T09:01:20.706Z,2
2024-05-09T09:02:34.926Z,2.9
2024-05-09T09:03:49.142Z,3.1
2024-05-09T09:05:03.461Z,2.6
2024-05-09T09:06:17.687Z,2.5
2024-05-09T09:07:31.913Z,2.7
2024-05-09T09:10:00.367Z,2.8
2024-05-09T09:11:14.673Z,2.8
2024-05-09T09:12:28.918Z,3
2024-05-09T09:13:43.137Z,2.9
2024-05-09T09:14:57.378Z,2.8
2024-05-09T09:16:11.596Z,3
2024-05-09T09:17:25.957Z,2.6
2024-05-09T09:18:40.237Z,2.6
2024-05-09T09:19:53.592Z,3.2
2024-05-09T09:21:06.923Z,2.3
2024-05-09T09:22:21.212Z,2.9
2024-05-09T09:23:35.492Z,2.7
2024-05-09T09:24:49.767Z,2.7
2024-05-09T09:26:03.079Z,3.7
2024-05-09T09:27:17.312Z,2.5
2024-05-09T09:28:31.534Z,2.8
2024-05-09T09:29:45.778Z,3.1
2024-05-09T09:31:00.002Z,2.5
2024-05-09T09:32:14.293Z,2.9
2024-05-09T09:33:28.544Z,2.3
2024-05-09T09:34:42.760Z,2.7
2024-05-09T09:35:56.985Z,2.4
2024-05-09T09:37:11.225Z,2.4
2024-05-09T09:38:25.525Z,2.4
2024-05-09T09:39:39.764Z,2.5
2024-05-09T09:40:53.986Z,2.3
2024-05-09T09:42:08.209Z,2.7
2024-05-09T09:43:22.434Z,2.6
2024-05-09T09:44:36.743Z,2
2024-05-09T09:45:50.989Z,2.8
2024-05-09T09:47:05.222Z,3
2024-05-09T09:48:19.441Z,2.7
2024-05-09T09:49:33.676Z,2.4
2024-05-09T09:50:47.965Z,3.1
2024-05-09T09:52:02.213Z,2.8
2024-05-09T09:53:16.433Z,2.4
2024-05-09T09:54:30.669Z,2.3
2024-05-09T09:55:44.880Z,2.1
2024-05-09T09:56:59.244Z,2
2024-05-09T09:58:13.537Z,1.7
2024-05-09T09:59:26.895Z,2.3
2024-05-09T10:00:40.183Z,2.1
2024-05-09T10:01:54.420Z,2.8
2024-05-09T10:03:08.651Z,2.3
2024-05-09T10:04:22.877Z,2.3
2024-05-09T10:05:37.112Z,2.4
2024-05-09T10:06:51.410Z,2.1
2024-05-09T10:08:05.648Z,2.5
2024-05-09T10:09:19.885Z,2.5
2024-05-09T10:10:34.093Z,2.3
2024-05-09T10:11:48.322Z,2.1
2024-05-09T10:13:02.623Z,1.9
2024-05-09T10:14:16.870Z,1.9
2024-05-09T10:15:31.099Z,2.1
2024-05-09T10:16:45.327Z,1.9
2024-05-09T10:17:59.556Z,2.4
2024-05-09T10:19:13.851Z,2.3
2024-05-09T10:20:28.106Z,2.3
2024-05-09T10:21:42.319Z,2.3
2024-05-09T10:22:56.557Z,2.6
2024-05-09T10:24:10.786Z,2.1
2024-05-09T10:25:25.087Z,2.4
2024-05-09T10:26:39.316Z,2.9
2024-05-09T10:27:53.555Z,3
2024-05-09T10:29:07.784Z,2.5
2024-05-09T10:30:22.010Z,2.6
2024-05-09T10:31:36.364Z,2.7
2024-05-09T10:32:50.644Z,2.6
2024-05-09T10:34:04.002Z,2.3
2024-05-09T10:35:17.302Z,2.8
2024-05-09T10:36:31.550Z,3
2024-05-09T10:37:45.778Z,2.9
2024-05-09T10:39:00.001Z,2.6
2024-05-09T10:40:14.238Z,2.6
2024-05-09T10:41:28.520Z,2.6
2024-05-09T10:42:42.770Z,2.5
2024-05-09T10:43:57.004Z,2.8
2024-05-09T10:45:11.225Z,2.8
2024-05-09T10:46:25.443Z,2.8
2024-05-09T10:47:39.760Z,2.7
2024-05-09T10:48:53.991Z,2.9
2024-05-09T10:50:08.232Z,2.6
2024-05-09T10:51:22.446Z,2.2
2024-05-09T10:52:36.667Z,3.2
2024-05-09T10:53:50.967Z,2.5
2024-05-09T10:55:05.219Z,3
2024-05-09T10:56:19.440Z,2.7
2024-05-09T10:57:33.678Z,2.5
2024-05-09T10:58:47.909Z,2.4
2024-05-09T11:00:02.193Z,2.4
2024-05-09T11:01:16.450Z,2.5
2024-05-09T11:02:30.668Z,2.7
2024-05-09T11:03:44.902Z,2
2024-05-09T11:04:59.118Z,2.5
2024-05-09T11:06:13.477Z,2.6
2024-05-09T11:07:27.758Z,2.3
2024-05-09T11:08:41.102Z,2.2
2024-05-09T11:09:55.375Z,3
2024-05-09T11:11:09.693Z,2.2
2024-05-09T11:12:23.970Z,2.2
2024-05-09T11:13:38.244Z,2.7
2024-05-09T11:14:52.527Z,2.6
2024-05-09T11:16:05.891Z,2
2024-05-09T11:17:20.169Z,1.9
2024-05-09T11:18:33.502Z,2.7
2024-05-09T11:19:47.786Z,2.6
2024-05-09T11:21:02.078Z,2.4
2024-05-09T11:22:16.379Z,2.6
2024-05-09T11:23:30.653Z,2.4
2024-05-09T11:24:44.947Z,2.4
2024-05-09T11:25:59.234Z,2.4
2024-05-09T11:27:13.523Z,3
2024-05-09T11:28:27.813Z,3.2
2024-05-09T11:29:42.083Z,2.7
2024-05-09T11:30:55.445Z,2.7
2024-05-09T11:32:09.745Z,2.2
2024-05-09T11:33:24.036Z,2.4
2024-05-09T11:34:37.380Z,2.5
2024-05-09T11:35:50.744Z,2.5
2024-05-09T11:37:05.024Z,2.4
2024-05-09T11:38:18.358Z,2.4
2024-05-09T11:39:32.641Z,2.3
2024-05-09T11:40:46.946Z,2.9
2024-05-09T11:42:01.220Z,2.7
2024-05-09T11:43:15.504Z,2.3
2024-05-09T11:44:29.796Z,2.3
2024-05-09T11:45:44.072Z,2.8
2024-05-09T11:46:58.372Z,2.1
2024-05-09T11:48:12.665Z,2.1
2024-05-09T11:49:26.942Z,2.6
2024-05-09T11:50:41.224Z,2.5
2024-05-09T11:51:55.519Z,2.7
2024-05-09T11:53:09.823Z,2.6
2024-05-09T11:54:24.100Z,2.7
2024-05-09T11:55:38.396Z,2.7
2024-05-09T11:56:51.677Z,2.6
2024-05-09T11:58:05.991Z,2.4
2024-05-09T11:59:20.218Z,2.3
2024-05-09T12:00:34.451Z,2.3
2024-05-09T12:01:48.687Z,2.6
2024-05-09T12:03:02.900Z,2.3
2024-05-09T12:04:17.215Z,2.5
2024-05-09T12:05:31.458Z,2.4
2024-05-09T12:06:45.693Z,2.2
2024-05-09T12:07:59.900Z,2.6
2024-05-09T12:09:14.132Z,1.9
2024-05-09T12:10:28.431Z,2.2
2024-05-09T12:11:42.673Z,2.4
2024-05-09T12:12:56.917Z,2.3
2024-05-09T12:14:11.141Z,2
2024-05-09T12:15:25.364Z,2.2
2024-05-09T12:16:39.657Z,2.3
2024-05-09T12:17:53.902Z,2.4
2024-05-09T12:19:08.136Z,2.1
2024-05-09T12:20:22.369Z,2
2024-05-09T12:21:36.583Z,2.3
2024-05-09T12:22:50.884Z,3.2
2024-05-09T12:24:05.145Z,2.6
2024-05-09T12:25:19.361Z,2.4
2024-05-09T12:26:33.597Z,2.5
2024-05-09T12:27:47.870Z,2.3
2024-05-09T12:29:02.173Z,2.5
2024-05-09T12:30:16.463Z,2
2024-05-09T12:31:29.753Z,2.1
2024-05-09T12:32:43.980Z,1.9
2024-05-09T12:33:58.301Z,2.1
2024-05-09T12:35:12.541Z,1.8
2024-05-09T12:36:26.758Z,2.2
2024-05-09T12:37:41.122Z,2.3
2024-05-09T12:38:55.332Z,2.3
2024-05-09T12:40:09.636Z,2.3
2024-05-09T12:41:23.892Z,2.3
2024-05-09T12:42:38.114Z,2.4
2024-05-09T12:43:52.345Z,2.5
2024-05-09T12:45:06.579Z,2.1
2024-05-09T12:46:20.877Z,2.3
2024-05-09T12:47:35.124Z,2.3
2024-05-09T12:48:49.341Z,1.9
2024-05-09T12:50:03.571Z,1.9
2024-05-09T12:51:17.805Z,2.3
2024-05-09T12:52:32.108Z,2
2024-05-09T12:53:46.352Z,2.6
2024-05-09T12:55:00.567Z,2.6
2024-05-09T12:56:14.800Z,2.2
2024-05-09T12:57:29.034Z,2.5
2024-05-09T12:58:43.338Z,2.8
2024-05-09T12:59:57.569Z,2.1
2024-05-09T13:01:11.793Z,2.2
2024-05-09T13:02:26.024Z,2
2024-05-09T13:03:40.250Z,2.2
2024-05-09T13:04:54.562Z,2.1
2024-05-09T13:06:08.800Z,1.8
2024-05-09T13:07:23.031Z,1.8
2024-05-09T13:08:37.244Z,1.6
2024-05-09T13:09:51.478Z,1.9
2024-05-09T13:11:05.786Z,2.2
2024-05-09T13:12:20.032Z,2.4
2024-05-09T13:13:34.264Z,1.9
2024-05-09T13:14:48.484Z,2.2
2024-05-09T13:16:02.717Z,2.2
2024-05-09T13:17:17.016Z,2.3
2024-05-09T13:18:31.262Z,1.9
2024-05-09T13:19:45.492Z,1.9
2024-05-09T13:20:59.711Z,2.4
2024-05-09T13:22:13.930Z,2.1
2024-05-09T13:23:28.289Z,2.3
2024-05-09T13:24:42.588Z,2.6
2024-05-09T13:25:55.888Z,2
2024-05-09T13:27:10.104Z,2.1
2024-05-09T13:28:24.407Z,2
2024-05-09T13:29:38.664Z,2.6
2024-05-09T13:30:52.881Z,1.9
2024-05-09T13:32:07.115Z,2.2
2024-05-09T13:33:21.332Z,1.9
2024-05-09T13:34:35.648Z,2.1
2024-05-09T13:35:49.890Z,2.2
2024-05-09T13:37:04.110Z,2.1
2024-05-09T13:38:18.337Z,1.7
2024-05-09T13:39:32.558Z,2.1
2024-05-09T13:40:46.856Z,1.9
2024-05-09T13:42:01.113Z,2.5
2024-05-09T13:43:15.332Z,1.8
2024-05-09T13:44:29.573Z,1.7
2024-05-09T13:45:43.785Z,1.9
2024-05-09T13:46:58.085Z,2.1
2024-05-09T13:48:12.341Z,2.2
2024-05-09T13:49:26.553Z,1.9
2024-05-09T13:50:40.797Z,1.8
2024-05-09T13:51:55.013Z,1.9
2024-05-09T13:54:23.563Z,2
2024-05-09T13:55:37.789Z,1.9
2024-05-09T13:56:52.085Z,2.1
2024-05-09T13:58:05.406Z,2.2
2024-05-09T13:59:19.685Z,2.2
2024-05-09T14:00:32.984Z,2
2024-05-09T14:03:01.510Z,2.1
2024-05-09T14:04:15.755Z,2.3
2024-05-09T14:05:29.992Z,1.8
2024-05-09T14:06:44.206Z,1.4
2024-05-09T14:07:58.445Z,2.2
2024-05-09T14:09:12.750Z,2.1
2024-05-09T14:10:26.985Z,1.9
2024-05-09T14:11:41.210Z,1.6
2024-05-09T14:12:55.437Z,1.8
2024-05-09T14:14:09.668Z,2
2024-05-09T14:15:23.963Z,2.1
2024-05-09T14:16:38.212Z,1.9
2024-05-09T14:17:52.436Z,2.2
2024-05-09T14:19:06.671Z,2.2
2024-05-09T14:20:20.889Z,1.8
2024-05-09T14:21:35.187Z,2.2
2024-05-09T14:22:49.426Z,2.1
2024-05-09T14:24:03.659Z,2.2
2024-05-09T14:25:17.876Z,1.7
2024-05-09T14:26:32.122Z,2.1
2024-05-09T14:27:46.411Z,1.7
2024-05-09T14:29:00.652Z,1.8
2024-05-09T14:30:14.883Z,1.8
2024-05-09T14:31:29.180Z,1.8
2024-05-09T14:32:42.511Z,1.6
2024-05-09T14:33:56.787Z,2.1
2024-05-09T14:35:10.085Z,1.6
2024-05-09T14:36:24.306Z,2.3
2024-05-09T14:37:38.602Z,1.9
2024-05-09T14:38:52.857Z,1.8
2024-05-09T14:40:07.088Z,1.8
2024-05-09T14:42:35.525Z,1.9
2024-05-09T14:43:49.828Z,1.8
2024-05-09T14:45:04.081Z,1.6
2024-05-09T14:46:18.313Z,1.4
2024-05-09T14:47:32.539Z,2
2024-05-09T14:48:46.759Z,1.8
2024-05-09T14:50:01.059Z,1.9
2024-05-09T14:51:15.309Z,1.9
2024-05-09T14:52:29.530Z,1.9
2024-05-09T14:53:43.764Z,1.8
2024-05-09T14:54:57.975Z,2.4
2024-05-09T14:57:26.536Z,2.5
2024-05-09T14:58:40.756Z,2.2
2024-05-09T14:59:54.976Z,1.7
2024-05-09T15:01:09.200Z,2.1
2024-05-09T15:02:23.499Z,1.8
2024-05-09T15:03:37.750Z,2.3
2024-05-09T15:04:51.972Z,1.9
2024-05-09T15:06:06.271Z,1.8
2024-05-09T15:07:20.553Z,1.7
2024-05-09T15:08:34.837Z,1.7
2024-05-09T15:09:49.134Z,2
2024-05-09T15:11:02.436Z,1.5
2024-05-09T15:12:16.667Z,1.9
2024-05-09T15:13:30.955Z,2.1
2024-05-09T15:14:45.198Z,2.6
2024-05-09T15:15:59.419Z,1.7
2024-05-09T15:17:13.661Z,2.2
2024-05-09T15:18:27.875Z,1.9
2024-05-09T15:19:42.173Z,1.9
2024-05-09T15:20:56.413Z,2.1
2024-05-09T15:22:10.638Z,1.8
2024-05-09T15:23:24.877Z,2.2
2024-05-09T15:24:39.098Z,2
2024-05-09T15:25:53.410Z,1.3
2024-05-09T15:27:07.638Z,2
2024-05-09T15:28:21.866Z,2.4
2024-05-09T15:29:36.093Z,2
2024-05-09T15:30:50.315Z,1.9
2024-05-09T15:32:04.615Z,1.7
2024-05-09T15:33:18.875Z,2
2024-05-09T15:34:33.083Z,1.9
2024-05-09T15:35:47.329Z,2.2
2024-05-09T15:37:01.543Z,2
2024-05-09T15:38:15.837Z,2
2024-05-09T15:39:30.078Z,1.6
2024-05-09T15:40:44.314Z,1.6
2024-05-09T15:41:58.598Z,1.7
2024-05-09T15:43:11.897Z,2.3
2024-05-09T15:44:26.144Z,1.6
2024-05-09T15:45:40.368Z,2.1
2024-05-09T15:46:54.586Z,2
2024-05-09T15:48:08.808Z,2.3
2024-05-09T15:49:23.122Z,2
2024-05-09T15:50:37.363Z,2.6
2024-05-09T15:51:51.584Z,2.2
2024-05-09T15:53:05.813Z,2
2024-05-09T15:54:20.029Z,1.8
2024-05-09T15:55:34.338Z,2.2
2024-05-09T15:56:48.577Z,1.9
2024-05-09T15:58:02.798Z,2.2
2024-05-09T15:59:17.037Z,1.9
2024-05-09T16:00:31.252Z,2
2024-05-09T16:01:45.567Z,1.7
2024-05-09T16:02:59.809Z,2.4
2024-05-09T16:04:14.031Z,1.7
2024-05-09T16:05:28.262Z,2.6
2024-05-09T16:06:42.480Z,2.2
2024-05-09T16:07:56.791Z,2.1
2024-05-09T16:09:11.017Z,2.2
2024-05-09T16:10:25.252Z,2.2
2024-05-09T16:11:39.466Z,2.1
2024-05-09T16:12:53.711Z,1.9
2024-05-09T16:14:08.066Z,1.9
2024-05-09T16:15:22.352Z,2
2024-05-09T16:16:35.631Z,2.2
2024-05-09T16:17:49.864Z,1.9
2024-05-09T16:19:04.174Z,1.7
2024-05-09T16:20:18.414Z,1.8
2024-05-09T16:21:32.631Z,1.8
2024-05-09T16:22:46.864Z,2
2024-05-09T16:24:01.088Z,1.7
2024-05-09T16:25:15.379Z,2
2024-05-09T16:26:29.624Z,1.7
2024-05-09T16:27:43.861Z,1.6
2024-05-09T16:28:58.085Z,1.4
2024-05-09T16:30:12.316Z,2
2024-05-09T16:31:26.611Z,1.5
2024-05-09T16:32:40.852Z,2.1
2024-05-09T16:33:55.067Z,2
2024-05-09T16:35:09.292Z,1.6
2024-05-09T16:36:23.521Z,3
2024-05-09T16:37:37.834Z,1.9
2024-05-09T16:38:52.074Z,2
2024-05-09T16:40:06.303Z,2.1
2024-05-09T16:41:20.512Z,1.7
2024-05-09T16:42:34.747Z,1.8
2024-05-09T16:43:49.048Z,2.1
2024-05-09T16:45:03.296Z,2.1
2024-05-09T16:46:17.521Z,2
2024-05-09T16:47:31.799Z,2.2
2024-05-09T16:48:45.099Z,2.1
2024-05-09T16:49:59.335Z,2
2024-05-09T16:51:13.557Z,2.7
2024-05-09T16:52:27.793Z,2.8
2024-05-09T16:53:42.014Z,2.5
2024-05-09T16:54:56.310Z,2.3
2024-05-09T16:56:10.557Z,2.8
2024-05-09T16:57:24.788Z,2.1
2024-05-09T16:58:39.009Z,2.5
2024-05-09T16:59:53.248Z,2.1
2024-05-09T17:01:07.540Z,2.7
2024-05-09T17:02:21.779Z,2.7
2024-05-09T17:03:35.997Z,1.8
2024-05-09T17:04:50.237Z,2.1
2024-05-09T17:06:04.453Z,1.9
2024-05-09T17:07:18.760Z,2.3
2024-05-09T17:08:33.006Z,1.7
2024-05-09T17:09:47.227Z,2
2024-05-09T17:11:01.444Z,2
2024-05-09T17:12:15.687Z,2.5
2024-05-09T17:13:29.982Z,2.2
2024-05-09T17:14:44.228Z,2
2024-05-09T17:15:58.453Z,1.9
2024-05-09T17:17:12.668Z,1.8
2024-05-09T17:18:26.906Z,2
2024-05-09T17:19:41.268Z,2.5